createdAt,value
2022-10-16T00:00:55.488Z,16.20
2022-10-16T00:03:25.414Z,16.20
2022-10-16T00:05:54.916Z,16.20
2022-10-16T00:08:21.725Z,16.20
2022-10-16T00:10:48.522Z,16.20
2022-10-16T00:13:15.429Z,16.10
2022-10-16T00:15:44.308Z,16.10
2022-10-16T00:18:11.446Z,16.10
2022-10-16T00:20:38.250Z,16.10
2022-10-16T00:23:06.185Z,16.10
2022-10-16T00:25:33.917Z,16.10
2022-10-16T00:28:01.830Z,16.10
2022-10-16T00:30:29.060Z,16.10
2022-10-16T00:32:56.733Z,16.10
2022-10-16T00:35:23.673Z,16.10
2022-10-16T00:37:50.689Z,16.10
2022-10-16T00:40:17.800Z,16.10
2022-10-16T00:42:44.662Z,16.10
2022-10-16T00:45:12.066Z,16.10
2022-10-16T00:47:43.286Z,16.10
2022-10-16T00:50:23.196Z,16.10
2022-10-16T00:52:52.422Z,16.10
2022-10-16T00:55:20.033Z,16.10
2022-10-16T00:57:47.716Z,16.10
2022-10-16T01:00:19.812Z,16.10
2022-10-16T01:02:52.808Z,16.10
2022-10-16T01:05:19.672Z,16.10
2022-10-16T01:08:08.025Z,16.10
2022-10-16T01:10:58.262Z,16.00
2022-10-16T01:13:51.129Z,16.10
2022-10-16T01:16:32.036Z,16.00
2022-10-16T01:19:08.873Z,16.00
2022-10-16T01:21:43.210Z,16.00
2022-10-16T01:24:17.309Z,16.00
2022-10-16T01:27:09.007Z,16.00
2022-10-16T01:30:03.651Z,16.10
2022-10-16T01:33:02.951Z,16.10
2022-10-16T01:35:50.885Z,16.20
2022-10-16T01:38:39.803Z,16.20
2022-10-16T01:41:14.200Z,16.30
2022-10-16T01:43:46.859Z,16.20
2022-10-16T01:46:15.315Z,16.20
2022-10-16T01:48:42.770Z,16.20
2022-10-16T01:51:17.811Z,16.20
2022-10-16T01:53:50.189Z,16.20
2022-10-16T01:56:19.462Z,16.20
2022-10-16T01:58:50.779Z,16.20
2022-10-16T02:01:22.875Z,16.20
2022-10-16T02:03:53.374Z,16.20
2022-10-16T02:06:20.872Z,16.20
2022-10-16T02:08:47.967Z,16.20
2022-10-16T02:11:14.793Z,16.30
2022-10-16T02:13:57.879Z,16.20
2022-10-16T02:16:33.476Z,16.30
2022-10-16T02:19:00.370Z,16.30
2022-10-16T02:21:31.026Z,16.20
2022-10-16T02:24:23.321Z,16.20
2022-10-16T02:27:04.716Z,16.20
2022-10-16T02:29:33.411Z,16.20
2022-10-16T02:32:05.472Z,16.20
2022-10-16T02:34:34.511Z,16.20
2022-10-16T02:37:04.555Z,16.20
2022-10-16T02:39:32.458Z,16.30
2022-10-16T02:41:59.297Z,16.30
2022-10-16T02:44:26.319Z,16.30
2022-10-16T02:46:53.202Z,16.30
2022-10-16T02:49:20.046Z,16.30
2022-10-16T02:51:46.881Z,16.20
2022-10-16T02:54:14.151Z,16.20
2022-10-16T02:56:40.976Z,16.20
2022-10-16T02:59:07.831Z,16.20
2022-10-16T03:01:34.755Z,16.20
2022-10-16T03:04:01.617Z,16.20
2022-10-16T03:06:28.433Z,16.20
2022-10-16T03:08:55.278Z,16.20
2022-10-16T03:11:22.127Z,16.20
2022-10-16T03:13:49.084Z,16.20
2022-10-16T03:16:15.926Z,16.10
2022-10-16T03:18:42.744Z,16.10
2022-10-16T03:21:09.569Z,16.10
2022-10-16T03:23:36.524Z,16.10
2022-10-16T03:26:03.380Z,16.00
2022-10-16T03:28:30.258Z,16.00
2022-10-16T03:30:57.216Z,16.00
2022-10-16T03:33:24.060Z,16.00
2022-10-16T03:35:55.411Z,15.90
2022-10-16T03:38:22.803Z,15.90
2022-10-16T03:40:49.605Z,15.90
2022-10-16T03:43:16.517Z,15.90
2022-10-16T03:45:43.478Z,15.90
2022-10-16T03:48:10.412Z,15.90
2022-10-16T03:50:37.457Z,15.90
2022-10-16T03:53:04.729Z,15.90
2022-10-16T03:55:31.755Z,15.90
2022-10-16T03:57:58.602Z,15.90
2022-10-16T04:00:25.428Z,15.90
2022-10-16T04:02:52.233Z,15.90
2022-10-16T04:05:19.252Z,15.90
2022-10-16T04:07:46.108Z,15.80
2022-10-16T04:10:12.949Z,15.90
2022-10-16T04:12:39.763Z,15.90
2022-10-16T04:15:06.927Z,15.90
2022-10-16T04:17:33.757Z,15.90
2022-10-16T04:20:00.626Z,15.90
2022-10-16T04:24:59.177Z,15.90
2022-10-16T04:27:26.847Z,15.90
2022-10-16T04:29:53.906Z,15.90
2022-10-16T04:32:20.743Z,15.90
2022-10-16T04:34:47.551Z,15.90
2022-10-16T04:37:14.411Z,15.90
2022-10-16T04:39:41.245Z,15.90
2022-10-16T04:42:08.111Z,15.90
2022-10-16T04:44:34.956Z,15.90
2022-10-16T04:47:02.476Z,15.90
2022-10-16T04:49:29.365Z,15.90
2022-10-16T04:51:56.213Z,15.90
2022-10-16T04:54:23.054Z,15.90
2022-10-16T04:56:51.818Z,16.00
2022-10-16T04:59:20.646Z,15.90
2022-10-16T05:01:47.465Z,15.90
2022-10-16T05:04:16.061Z,16.00
2022-10-16T05:06:43.973Z,16.00
2022-10-16T05:09:11.019Z,16.00
2022-10-16T05:11:37.912Z,15.90
2022-10-16T05:14:04.842Z,15.90
2022-10-16T05:16:32.023Z,15.80
2022-10-16T05:19:22.466Z,15.80
2022-10-16T05:21:45.685Z,15.80
2022-10-16T05:24:12.566Z,15.80
2022-10-16T05:26:39.394Z,15.80
2022-10-16T05:29:06.296Z,15.80
2022-10-16T05:31:33.150Z,15.80
2022-10-16T05:34:03.513Z,15.80
2022-10-16T05:36:30.375Z,15.80
2022-10-16T05:38:57.237Z,15.80
2022-10-16T05:41:26.698Z,15.80
2022-10-16T05:43:54.291Z,15.90
2022-10-16T05:46:21.151Z,15.80
2022-10-16T05:48:48.064Z,15.80
2022-10-16T05:51:16.196Z,15.80
2022-10-16T05:56:13.037Z,15.90
2022-10-16T05:58:45.263Z,15.90
2022-10-16T06:01:18.206Z,15.90
2022-10-16T06:03:45.571Z,15.90
2022-10-16T06:06:24.187Z,15.90
2022-10-16T06:08:51.363Z,15.90
2022-10-16T06:11:20.653Z,15.90
2022-10-16T06:13:51.475Z,15.90
2022-10-16T06:16:18.670Z,16.00
2022-10-16T06:18:45.518Z,16.00
2022-10-16T06:21:17.058Z,15.90
2022-10-16T06:26:20.090Z,16.00
2022-10-16T06:28:47.247Z,16.00
2022-10-16T06:31:14.964Z,16.00
2022-10-16T06:33:42.245Z,16.10
2022-10-16T06:36:18.334Z,16.10
2022-10-16T06:38:45.625Z,16.10
2022-10-16T06:41:18.115Z,16.10
2022-10-16T06:43:48.226Z,16.10
2022-10-16T06:46:17.464Z,16.10
2022-10-16T06:48:44.787Z,16.10
2022-10-16T06:51:13.938Z,16.20
2022-10-16T06:54:01.810Z,16.20
2022-10-16T06:56:31.913Z,16.20
2022-10-16T06:58:59.385Z,16.30
2022-10-16T07:01:26.685Z,16.40
2022-10-16T07:03:53.694Z,16.40
2022-10-16T07:06:22.793Z,16.40
2022-10-16T07:08:49.802Z,16.50
2022-10-16T07:11:20.300Z,16.50
2022-10-16T07:13:52.561Z,16.50
2022-10-16T07:16:26.114Z,16.50
2022-10-16T07:18:58.888Z,16.60
2022-10-16T07:21:27.388Z,16.60
2022-10-16T07:23:56.124Z,16.60
2022-10-16T07:26:24.535Z,16.60
2022-10-16T07:28:51.584Z,16.50
2022-10-16T07:31:20.253Z,16.50
2022-10-16T07:33:49.121Z,16.50
2022-10-16T07:36:18.701Z,16.50
2022-10-16T07:38:46.363Z,16.50
2022-10-16T07:41:17.819Z,16.50
2022-10-16T07:43:55.650Z,16.50
2022-10-16T07:46:23.707Z,16.50
2022-10-16T07:48:50.602Z,16.50
2022-10-16T07:51:19.961Z,16.60
2022-10-16T07:53:48.004Z,16.60
2022-10-16T07:56:16.038Z,16.80
2022-10-16T07:58:42.819Z,16.80
2022-10-16T08:01:12.677Z,16.90
2022-10-16T08:03:42.531Z,16.90
2022-10-16T08:06:09.386Z,16.90
2022-10-16T08:08:36.381Z,16.90
2022-10-16T08:11:05.010Z,16.90
2022-10-16T08:13:32.742Z,16.80
2022-10-16T08:15:59.834Z,16.90
2022-10-16T08:18:26.799Z,17.00
2022-10-16T08:20:58.947Z,17.10
2022-10-16T08:23:27.349Z,17.20
2022-10-16T08:25:55.926Z,17.20
2022-10-16T08:28:24.086Z,17.30
2022-10-16T08:30:51.100Z,17.30
2022-10-16T08:33:18.128Z,17.30
2022-10-16T08:35:52.044Z,17.40
2022-10-16T08:38:18.944Z,17.40
2022-10-16T08:40:48.617Z,17.40
2022-10-16T08:43:22.116Z,17.50
2022-10-16T08:46:01.128Z,17.50
2022-10-16T08:48:53.507Z,17.50
2022-10-16T08:51:31.781Z,17.50
2022-10-16T08:54:07.250Z,17.60
2022-10-16T08:56:36.877Z,17.70
2022-10-16T08:59:07.999Z,17.90
2022-10-16T09:02:02.749Z,18.00
2022-10-16T09:04:56.801Z,18.10
2022-10-16T09:07:32.536Z,18.20
2022-10-16T09:10:33.518Z,18.20
2022-10-16T09:13:03.323Z,18.40
2022-10-16T09:15:41.261Z,18.40
2022-10-16T09:18:19.350Z,18.40
2022-10-16T09:20:46.169Z,18.40
2022-10-16T09:23:25.061Z,18.40
2022-10-16T09:25:52.670Z,18.50
2022-10-16T09:28:19.807Z,18.50
2022-10-16T09:30:49.485Z,18.50
2022-10-16T09:33:18.995Z,18.60
2022-10-16T09:35:52.043Z,18.50
2022-10-16T09:38:23.040Z,18.50
2022-10-16T09:40:58.863Z,18.40
2022-10-16T09:43:47.023Z,18.30
2022-10-16T09:46:23.334Z,18.30
2022-10-16T09:48:52.941Z,18.20
2022-10-16T09:51:36.446Z,18.20
2022-10-16T09:54:18.410Z,18.30
2022-10-16T09:56:52.821Z,18.30
2022-10-16T09:59:21.563Z,18.30
2022-10-16T10:01:53.742Z,18.40
2022-10-16T10:04:22.174Z,18.40
2022-10-16T10:06:55.427Z,18.40
2022-10-16T10:09:30.533Z,18.30
2022-10-16T10:14:48.378Z,18.40
2022-10-16T10:17:26.241Z,18.50
2022-10-16T10:20:04.318Z,18.50
2022-10-16T10:22:47.045Z,18.60
2022-10-16T10:25:13.944Z,18.60
2022-10-16T10:28:10.821Z,18.60
2022-10-16T10:31:02.218Z,18.70
2022-10-16T10:33:44.372Z,18.50
2022-10-16T10:36:33.129Z,18.50
2022-10-16T10:39:01.503Z,18.40
2022-10-16T10:41:31.933Z,18.30
2022-10-16T10:44:23.841Z,18.20
2022-10-16T10:47:10.794Z,18.00
2022-10-16T10:50:15.337Z,18.10
2022-10-16T10:52:53.116Z,18.20
2022-10-16T10:55:39.494Z,18.30
2022-10-16T10:58:29.916Z,18.50
2022-10-16T11:01:19.963Z,18.90
2022-10-16T11:03:58.193Z,19.50
2022-10-16T11:06:57.427Z,20.10
2022-10-16T11:09:35.882Z,21.10
2022-10-16T11:12:26.693Z,22.20
2022-10-16T11:14:56.198Z,23.50
2022-10-16T11:17:44.249Z,24.60
2022-10-16T11:20:34.826Z,25.50
2022-10-16T11:23:06.658Z,26.40
2022-10-16T11:25:34.494Z,27.40
2022-10-16T11:28:22.157Z,28.30
2022-10-16T11:30:58.299Z,29.30
2022-10-16T11:33:46.864Z,30.30
2022-10-16T11:36:32.399Z,31.20
2022-10-16T11:39:21.602Z,32.00
2022-10-16T11:42:02.980Z,33.00
2022-10-16T11:44:54.765Z,33.80
2022-10-16T11:50:33.086Z,34.30
2022-10-16T11:53:12.508Z,34.20
2022-10-16T11:55:44.781Z,33.70
2022-10-16T11:58:40.401Z,33.00
2022-10-16T12:01:10.405Z,33.10
2022-10-16T12:03:51.572Z,33.60
2022-10-16T12:06:46.491Z,33.80
2022-10-16T12:09:33.666Z,33.50
2022-10-16T12:12:01.423Z,33.50
2022-10-16T12:14:39.720Z,32.80
2022-10-16T12:17:37.399Z,32.20
2022-10-16T12:20:13.091Z,31.30
2022-10-16T12:22:50.503Z,30.90
2022-10-16T12:25:29.285Z,30.70
2022-10-16T12:28:05.508Z,30.20
2022-10-16T12:30:37.735Z,29.70
2022-10-16T12:33:22.158Z,29.00
2022-10-16T12:35:49.299Z,28.70
2022-10-16T12:38:22.192Z,28.20
2022-10-16T12:40:59.415Z,28.10
2022-10-16T12:43:30.091Z,27.70
2022-10-16T12:46:22.253Z,27.60
2022-10-16T12:49:05.947Z,27.30
2022-10-16T12:51:33.583Z,27.10
2022-10-16T12:54:23.794Z,26.90
2022-10-16T12:57:03.226Z,26.50
2022-10-16T12:59:33.998Z,26.40
2022-10-16T13:02:32.585Z,26.30
2022-10-16T13:05:20.776Z,26.20
2022-10-16T13:08:02.690Z,26.30
2022-10-16T13:10:35.547Z,26.20
2022-10-16T13:13:20.322Z,25.70
2022-10-16T13:16:18.805Z,25.40
2022-10-16T13:19:19.135Z,25.70
2022-10-16T13:21:53.446Z,25.90
2022-10-16T13:24:29.117Z,26.00
2022-10-16T13:27:27.770Z,25.80
2022-10-16T13:30:09.393Z,25.70
2022-10-16T13:32:36.338Z,26.00
2022-10-16T13:35:05.077Z,25.80
2022-10-16T13:37:31.946Z,25.40
2022-10-16T13:40:24.674Z,25.40
2022-10-16T13:42:53.606Z,25.30
2022-10-16T13:45:22.626Z,24.90
2022-10-16T13:47:49.485Z,24.60
2022-10-16T13:50:19.458Z,24.50
2022-10-16T13:52:46.425Z,24.30
2022-10-16T13:55:14.247Z,24.00
2022-10-16T13:57:41.433Z,23.80
2022-10-16T14:00:27.165Z,23.60
2022-10-16T14:03:14.086Z,23.40
2022-10-16T14:05:59.152Z,23.30
2022-10-16T14:08:28.143Z,23.20
2022-10-16T14:11:01.027Z,23.20
2022-10-16T14:13:38.413Z,23.20
2022-10-16T14:16:31.013Z,23.20
2022-10-16T14:18:59.502Z,23.20
2022-10-16T14:21:27.598Z,23.40
2022-10-16T14:23:55.280Z,23.40
2022-10-16T14:26:24.907Z,23.30
2022-10-16T14:29:10.256Z,23.40
2022-10-16T14:31:38.397Z,23.40
2022-10-16T14:34:05.474Z,23.40
2022-10-16T14:36:32.477Z,23.30
2022-10-16T14:39:03.776Z,23.30
2022-10-16T14:41:32.667Z,23.20
2022-10-16T14:44:04.954Z,23.10
2022-10-16T14:46:38.160Z,23.10
2022-10-16T14:49:10.937Z,23.00
2022-10-16T14:51:43.171Z,22.90
2022-10-16T14:54:10.798Z,22.80
2022-10-16T14:56:56.618Z,22.70
2022-10-16T14:59:28.590Z,22.60
2022-10-16T15:01:55.906Z,22.50
2022-10-16T15:04:22.769Z,22.40
2022-10-16T15:06:49.741Z,22.30
2022-10-16T15:09:16.768Z,22.20
2022-10-16T15:11:44.215Z,22.10
2022-10-16T15:16:41.983Z,22.00
2022-10-16T15:19:08.953Z,22.00
2022-10-16T15:21:35.785Z,22.00
2022-10-16T15:24:02.701Z,21.90
2022-10-16T15:26:30.977Z,21.90
2022-10-16T15:28:58.529Z,21.80
2022-10-16T15:31:25.604Z,21.70
2022-10-16T15:33:57.135Z,21.70
2022-10-16T15:36:32.021Z,21.60
2022-10-16T15:38:58.830Z,21.60
2022-10-16T15:41:25.783Z,21.60
2022-10-16T15:43:53.346Z,21.50
2022-10-16T15:46:22.667Z,21.40
2022-10-16T15:48:50.988Z,21.30
2022-10-16T15:51:18.926Z,21.20
2022-10-16T15:53:47.549Z,21.10
2022-10-16T15:56:15.248Z,21.00
2022-10-16T15:58:42.282Z,20.90
2022-10-16T16:01:11.035Z,20.90
2022-10-16T16:03:40.782Z,20.90
2022-10-16T16:06:12.887Z,20.90
2022-10-16T16:08:40.368Z,20.90
2022-10-16T16:11:12.469Z,20.90
2022-10-16T16:13:40.104Z,20.90
2022-10-16T16:16:12.594Z,20.90
2022-10-16T16:18:39.943Z,20.80
2022-10-16T16:21:07.055Z,20.70
2022-10-16T16:23:33.891Z,20.70
2022-10-16T16:26:05.154Z,20.60
2022-10-16T16:28:32.210Z,20.60
2022-10-16T16:30:59.175Z,20.60
2022-10-16T16:33:26.083Z,20.60
2022-10-16T16:35:57.843Z,20.60
2022-10-16T16:38:24.776Z,20.50
2022-10-16T16:40:55.493Z,20.40
2022-10-16T16:43:27.775Z,20.30
2022-10-16T16:45:55.589Z,20.30
2022-10-16T16:48:23.115Z,20.30
2022-10-16T16:50:50.037Z,20.30
2022-10-16T16:53:16.873Z,20.30
2022-10-16T16:55:43.877Z,20.30
2022-10-16T16:58:10.712Z,20.30
2022-10-16T17:00:37.548Z,20.20
2022-10-16T17:03:04.391Z,20.20
2022-10-16T17:05:31.320Z,20.20
2022-10-16T17:07:58.142Z,20.20
2022-10-16T17:10:24.951Z,20.20
2022-10-16T17:12:51.878Z,20.10
2022-10-16T17:15:18.816Z,20.10
2022-10-16T17:17:45.735Z,20.10
2022-10-16T17:20:12.579Z,20.00
2022-10-16T17:22:39.516Z,20.00
2022-10-16T17:25:07.907Z,20.00
2022-10-16T17:27:36.496Z,19.90
2022-10-16T17:30:05.025Z,19.90
2022-10-16T17:32:31.914Z,19.80
2022-10-16T17:34:58.774Z,19.70
2022-10-16T17:37:25.643Z,19.70
2022-10-16T17:39:53.048Z,19.70
2022-10-16T17:42:19.927Z,19.60
2022-10-16T17:44:46.829Z,19.60
2022-10-16T17:47:13.842Z,19.60
2022-10-16T17:49:40.848Z,19.50
2022-10-16T17:52:07.728Z,19.50
2022-10-16T17:54:34.678Z,19.50
2022-10-16T17:57:01.650Z,19.40
2022-10-16T17:59:29.352Z,19.40
2022-10-16T18:01:56.212Z,19.30
2022-10-16T18:04:23.131Z,19.30
2022-10-16T18:06:50.507Z,19.20
2022-10-16T18:09:19.434Z,19.10
2022-10-16T18:11:47.668Z,19.10
2022-10-16T18:14:16.201Z,19.00
2022-10-16T18:16:43.636Z,19.00
2022-10-16T18:19:12.061Z,18.90
2022-10-16T18:21:39.172Z,18.90
2022-10-16T18:24:06.186Z,18.90
2022-10-16T18:26:33.275Z,18.80
2022-10-16T18:29:01.080Z,18.70
2022-10-16T18:31:28.681Z,18.70
2022-10-16T18:33:55.963Z,18.70
2022-10-16T18:36:26.197Z,18.70
2022-10-16T18:38:53.904Z,18.60
2022-10-16T18:41:20.902Z,18.60
2022-10-16T18:43:48.158Z,18.40
2022-10-16T18:46:20.356Z,18.40
2022-10-16T18:48:48.502Z,18.30
2022-10-16T18:51:42.356Z,18.20
2022-10-16T18:54:11.620Z,18.20
2022-10-16T18:56:39.186Z,18.20
2022-10-16T18:59:07.763Z,18.10
2022-10-16T19:01:38.284Z,18.10
2022-10-16T19:04:08.746Z,18.00
2022-10-16T19:06:38.612Z,18.00
2022-10-16T19:09:06.495Z,17.90
2022-10-16T19:11:36.629Z,17.90
2022-10-16T19:14:07.441Z,17.80
2022-10-16T19:16:35.805Z,17.80
2022-10-16T19:19:05.397Z,17.70
2022-10-16T19:21:35.941Z,17.70
2022-10-16T19:24:04.208Z,17.70
2022-10-16T19:26:34.800Z,17.70
2022-10-16T19:29:05.089Z,17.60
2022-10-16T19:31:32.202Z,17.60
2022-10-16T19:34:02.959Z,17.60
2022-10-16T19:36:34.574Z,17.50
2022-10-16T19:39:04.516Z,17.50
2022-10-16T19:41:31.687Z,17.50
2022-10-16T19:44:06.875Z,17.40
2022-10-16T19:46:34.299Z,17.40
2022-10-16T19:49:03.191Z,17.30
2022-10-16T19:51:30.552Z,17.30
2022-10-16T19:54:00.486Z,17.20
2022-10-16T19:56:29.610Z,17.30
2022-10-16T19:58:57.543Z,17.20
2022-10-16T20:01:27.266Z,17.20
2022-10-16T20:03:54.869Z,17.20
2022-10-16T20:06:22.078Z,17.20
2022-10-16T20:08:53.775Z,17.10
2022-10-16T20:11:27.167Z,17.00
2022-10-16T20:13:53.996Z,17.00
2022-10-16T20:16:21.647Z,16.90
2022-10-16T20:18:50.238Z,16.90
2022-10-16T20:21:19.674Z,16.90
2022-10-16T20:23:48.683Z,16.90
2022-10-16T20:26:16.141Z,16.80
2022-10-16T20:28:43.884Z,16.80
2022-10-16T20:31:18.352Z,16.80
2022-10-16T20:33:45.573Z,16.80
2022-10-16T20:36:13.953Z,16.80
2022-10-16T20:38:41.922Z,16.80
2022-10-16T20:41:09.825Z,16.80
2022-10-16T20:43:39.891Z,16.70
2022-10-16T20:46:13.172Z,16.70
2022-10-16T20:48:44.160Z,16.70
2022-10-16T20:51:31.270Z,16.70
2022-10-16T20:54:04.504Z,16.70
2022-10-16T20:56:33.182Z,16.60
2022-10-16T20:59:00.089Z,16.60
2022-10-16T21:01:29.591Z,16.50
2022-10-16T21:03:59.061Z,16.50
2022-10-16T21:06:26.261Z,16.50
2022-10-16T21:08:53.361Z,16.40
2022-10-16T21:11:23.238Z,16.40
2022-10-16T21:13:52.588Z,16.40
2022-10-16T21:16:19.522Z,16.40
2022-10-16T21:18:46.668Z,16.30
2022-10-16T21:21:28.380Z,16.30
2022-10-16T21:23:57.500Z,16.30
2022-10-16T21:26:28.902Z,16.20
2022-10-16T21:29:04.598Z,16.20
2022-10-16T21:31:32.066Z,16.10
2022-10-16T21:33:59.135Z,16.10
2022-10-16T21:36:28.515Z,16.10
2022-10-16T21:38:55.905Z,16.00
2022-10-16T21:41:25.864Z,16.00
2022-10-16T21:43:53.455Z,16.00
2022-10-16T21:46:21.971Z,15.90
2022-10-16T21:48:48.990Z,15.90
2022-10-16T21:51:16.052Z,15.90
2022-10-16T21:53:42.922Z,15.80
2022-10-16T21:56:17.664Z,15.80
2022-10-16T21:58:45.693Z,15.80
2022-10-16T22:01:19.089Z,15.80
2022-10-16T22:03:46.782Z,15.80
2022-10-16T22:06:16.162Z,15.70
2022-10-16T22:08:44.105Z,15.70
2022-10-16T22:11:22.268Z,15.60
2022-10-16T22:13:54.294Z,15.60
2022-10-16T22:16:26.340Z,15.60
2022-10-16T22:18:54.896Z,15.60
2022-10-16T22:21:22.187Z,15.60
2022-10-16T22:23:49.041Z,15.50
2022-10-16T22:26:16.091Z,15.60
2022-10-16T22:28:43.474Z,15.50
2022-10-16T22:31:12.457Z,15.60
2022-10-16T22:33:40.095Z,15.60
2022-10-16T22:36:10.212Z,15.50
2022-10-16T22:38:37.493Z,15.50
2022-10-16T22:41:12.976Z,15.50
2022-10-16T22:43:43.134Z,15.40
2022-10-16T22:46:18.926Z,15.40
2022-10-16T22:48:46.035Z,15.40
2022-10-16T22:51:16.773Z,15.40
2022-10-16T22:53:45.614Z,15.30
2022-10-16T22:56:13.302Z,15.30
2022-10-16T22:58:40.502Z,15.30
2022-10-16T23:01:17.481Z,15.20
2022-10-16T23:03:44.351Z,15.20
2022-10-16T23:06:11.272Z,15.20
2022-10-16T23:08:38.098Z,15.10
2022-10-16T23:11:10.158Z,15.10
2022-10-16T23:13:38.590Z,15.00
2022-10-16T23:16:06.659Z,15.00
2022-10-16T23:18:36.532Z,15.00
2022-10-16T23:21:08.361Z,15.00
2022-10-16T23:23:39.217Z,15.00
2022-10-16T23:26:11.040Z,15.00
2022-10-16T23:28:38.243Z,14.90
2022-10-16T23:31:06.341Z,14.80
2022-10-16T23:33:34.871Z,14.80
2022-10-16T23:36:05.682Z,14.90
2022-10-16T23:38:32.679Z,14.80
2022-10-16T23:41:00.428Z,14.80
2022-10-16T23:43:27.701Z,14.80
2022-10-16T23:45:54.585Z,14.70
2022-10-16T23:48:21.451Z,14.70
2022-10-16T23:50:48.250Z,14.70
2022-10-16T23:53:15.324Z,14.60
2022-10-16T23:55:42.747Z,14.60
2022-10-16T23:58:09.582Z,14.60
